This is the latest recevied weather packets stored in our database for station/object WE8M. If no packets are shown the sender has not sent any weather packets the latest 10 day(s).
| Time | Temp. | Humidity | Pressure | Rain* | Wind** | Luminosity | Snow |
|---|---|---|---|---|---|---|---|
| 1777662467 | 12.78° C | 56% | 1014.2 hPa | 0 mm | - | - | - |
| 1777662163 | 12.78° C | 59% | 1014.1 hPa | 0 mm | - | - | - |
| 1777661859 | 12.78° C | 57% | 1014.3 hPa | 0 mm | - | - | - |
| 1777661555 | 12.78° C | 60% | 1014.1 hPa | 0 mm | - | - | - |
| 1777661251 | 13.33° C | 58% | 1014 hPa | 0 mm | - | - | - |
| 1777660946 | 13.33° C | 59% | 1014.1 hPa | 0 mm | - | - | - |
| 1777660643 | 13.33° C | 62% | 1013.9 hPa | 0 mm | - | - | - |
| 1777660340 | 13.33° C | 61% | 1014 hPa | 0 mm | - | - | - |
| 1777660036 | 12.78° C | 62% | 1013.9 hPa | 0 mm | - | - | - |
| 1777659733 | 12.78° C | 64% | 1014.1 hPa | 0 mm | - | - | - |
| 1777659430 | 12.78° C | 67% | 1013.8 hPa | 0 mm | - | - | - |
| 1777659128 | 11.11° C | 73% | 1013.9 hPa | 0 mm | - | - | - |
| 1777658825 | 10° C | 76% | 1014.2 hPa | 0 mm | - | - | - |
| 1777658521 | 10° C | 76% | 1013.9 hPa | 0 mm | - | - | - |
| 1777658218 | 10° C | 75% | 1014.1 hPa | 0 mm | - | - | - |
| 1777657915 | 10.56° C | 73% | 1014.1 hPa | 0 mm | - | - | - |
| 1777657611 | 11.11° C | 71% | 1013.7 hPa | 0 mm | - | - | - |
| 1777657309 | 11.67° C | 71% | 1013.5 hPa | 0 mm | - | - | - |
| 1777657006 | 12.22° C | 68% | 1013.7 hPa | 0 mm | - | - | - |
| 1777656703 | 12.78° C | 69% | 1013.6 hPa | 0 mm | - | - | - |
| 1777656399 | 12.78° C | 69% | 1013.4 hPa | 0 mm | - | - | - |
| 1777656094 | 12.22° C | 74% | 1013.6 hPa | 0 mm | - | - | - |
| 1777655790 | 11.67° C | 73% | 1013.6 hPa | 0 mm | - | - | - |
| 1777655487 | 11.67° C | 74% | 1013.4 hPa | 0 mm | - | - | - |
| 1777655185 | 11.67° C | 71% | 1013.6 hPa | 0 mm | - | - | - |
* Rain latest hour (hover to see other rain measurements)
** Current wind speed in m/s (hover to see current wind gust speed)